Time;durP1;ratioP1;P1;durP2;ratioP2;P2;SDS_P1;SDS_P2;PMS_P1;PMS_P2;Temp;Humidity;BMP_temperature;BMP_pressure;BME280_temperature;BME280_humidity;BME280_pressure;Samples;Min_cycle;Max_cycle;Signal;HPM_P1;HPM_P2
2022/07/31 00:00:40;;;;;;;5.35;4.13;;;19.10;99.90;;;;;;5071018;28;20400;-70
2022/07/31 00:03:07;;;;;;;6.38;4.20;;;19.10;99.90;;;;;;5070565;28;20041;-70
2022/07/31 00:05:33;;;;;;;6.68;4.05;;;19.10;99.90;;;;;;5072341;28;20040;-71
2022/07/31 00:07:59;;;;;;;7.80;3.80;;;19.00;99.90;;;;;;5072305;28;20068;-71
2022/07/31 00:10:24;;;;;;;5.28;3.28;;;19.00;99.90;;;;;;5054109;28;20719;-70
2022/07/31 00:12:51;;;;;;;8.07;3.72;;;19.10;99.90;;;;;;5070667;28;20529;-70
2022/07/31 00:15:16;;;;;;;7.63;3.17;;;19.10;99.90;;;;;;5075689;28;20139;-71
2022/07/31 00:17:42;;;;;;;6.10;3.70;;;19.10;99.90;;;;;;5074010;28;20151;-70
2022/07/31 00:20:13;;;;;;;11.05;3.88;;;19.00;99.90;;;;;;5070664;28;20067;-70
2022/07/31 00:22:43;;;;;;;6.53;4.47;;;19.10;99.90;;;;;;5071682;28;20040;-71
2022/07/31 00:25:11;;;;;;;7.03;3.70;;;19.00;99.90;;;;;;5070809;28;20468;-69
2022/07/31 00:27:37;;;;;;;8.38;3.92;;;19.00;99.90;;;;;;5070076;28;20033;-70
2022/07/31 00:30:04;;;;;;;10.43;4.68;;;19.00;99.90;;;;;;5070489;28;20135;-69
2022/07/31 00:32:29;;;;;;;6.18;3.75;;;18.90;99.90;;;;;;5071386;28;20047;-69
2022/07/31 00:34:55;;;;;;;7.70;4.00;;;18.90;99.90;;;;;;5071522;28;20045;-70
2022/07/31 00:37:21;;;;;;;9.32;3.95;;;18.90;99.90;;;;;;5069989;28;20056;-70
2022/07/31 00:39:46;;;;;;;6.75;4.03;;;18.80;99.90;;;;;;5070691;28;20045;-70
2022/07/31 00:42:23;;;;;;;7.15;4.22;;;18.80;99.90;;;;;;5071641;28;20139;-69
2022/07/31 00:44:50;;;;;;;6.50;4.13;;;18.80;99.90;;;;;;5071966;28;20039;-70
2022/07/31 00:47:17;;;;;;;8.20;3.92;;;18.80;99.90;;;;;;5071529;28;20123;-71
2022/07/31 00:49:43;;;;;;;8.25;3.80;;;18.80;99.90;;;;;;5071615;28;20036;-71
2022/07/31 00:52:09;;;;;;;5.93;3.85;;;18.80;99.90;;;;;;5071326;28;20048;-71
2022/07/31 00:54:35;;;;;;;6.35;3.85;;;18.80;99.90;;;;;;5071209;28;20048;-71
2022/07/31 00:57:01;;;;;;;5.78;3.67;;;18.70;99.90;;;;;;5053341;28;20055;-71
2022/07/31 00:59:28;;;;;;;6.05;3.50;;;18.70;99.90;;;;;;5071544;28;20037;-71
2022/07/31 01:01:53;;;;;;;5.38;3.40;;;18.70;99.90;;;;;;5073730;28;20036;-72
2022/07/31 01:04:19;;;;;;;9.25;3.45;;;18.60;99.90;;;;;;5075297;28;20039;-70
2022/07/31 01:06:45;;;;;;;5.90;3.78;;;18.70;99.90;;;;;;5072495;28;20048;-71
2022/07/31 01:09:13;;;;;;;5.90;3.58;;;18.60;99.90;;;;;;5069897;28;20033;-70
2022/07/31 01:12:16;;;;;;;11.52;3.75;;;18.50;99.90;;;;;;5069646;28;20489;-71
2022/07/31 01:14:51;;;;;;;5.05;3.20;;;18.50;99.90;;;;;;5071175;28;20116;-71
2022/07/31 01:17:20;;;;;;;6.78;3.60;;;18.50;99.90;;;;;;5069803;28;20056;-70
2022/07/31 01:19:47;;;;;;;4.88;3.15;;;18.50;99.90;;;;;;5052828;28;20040;-71
2022/07/31 01:22:34;;;;;;;5.28;3.60;;;18.40;99.90;;;;;;5071387;28;20101;-71
2022/07/31 01:25:38;;;;;;;4.28;3.33;;;18.50;99.90;;;;;;5071687;28;20060;-71
2022/07/31 01:28:12;;;;;;;7.13;3.35;;;18.50;99.90;;;;;;5069446;28;20048;-70
2022/07/31 01:31:18;;;;;;;6.30;3.53;;;18.40;99.90;;;;;;5070879;28;20036;-69
2022/07/31 01:34:20;;;;;;;6.05;3.83;;;18.30;99.90;;;;;;5047846;28;20124;-70
2022/07/31 01:36:54;;;;;;;8.87;3.97;;;18.30;99.90;;;;;;5023411;28;20049;-70
2022/07/31 01:39:20;;;;;;;5.50;4.28;;;18.30;99.90;;;;;;5047519;28;20517;-71
2022/07/31 01:41:47;;;;;;;4.88;4.38;;;18.20;99.90;;;;;;5048011;28;20128;-69
2022/07/31 01:44:16;;;;;;;8.63;4.88;;;18.20;99.90;;;;;;5030774;28;20131;-70
2022/07/31 01:46:45;;;;;;;7.80;4.65;;;18.20;99.90;;;;;;5047747;28;20075;-69
2022/07/31 01:49:12;;;;;;;5.55;4.65;;;18.20;99.90;;;;;;5047588;28;20123;-70
2022/07/31 01:51:40;;;;;;;8.40;5.10;;;18.20;99.90;;;;;;5031077;28;20065;-69
2022/07/31 01:54:07;;;;;;;5.68;4.90;;;18.10;99.90;;;;;;5047458;28;20095;-69
2022/07/31 01:56:34;;;;;;;7.25;5.38;;;18.20;99.90;;;;;;5047802;28;20119;-71
2022/07/31 01:59:00;;;;;;;7.38;4.65;;;18.20;99.90;;;;;;5030839;28;20052;-70
2022/07/31 02:01:27;;;;;;;8.18;4.85;;;18.20;99.90;;;;;;5030882;28;20405;-70
2022/07/31 02:03:55;;;;;;;10.13;4.88;;;18.20;99.90;;;;;;5038463;28;20068;-71
2022/07/31 02:06:22;;;;;;;10.25;4.72;;;18.20;99.90;;;;;;5070323;28;20045;-70
2022/07/31 02:08:50;;;;;;;5.80;5.18;;;18.20;99.90;;;;;;5070238;28;20032;-70
2022/07/31 02:11:17;;;;;;;5.03;4.53;;;18.20;99.90;;;;;;5069965;28;20051;-70
2022/07/31 02:13:44;;;;;;;6.53;4.82;;;18.20;99.90;;;;;;5068586;28;20055;-69
2022/07/31 02:16:12;;;;;;;5.97;5.25;;;18.20;99.90;;;;;;5069950;28;20048;-69
2022/07/31 02:18:39;;;;;;;9.60;4.97;;;18.20;99.90;;;;;;5070065;28;20464;-70
2022/07/31 02:21:05;;;;;;;9.45;5.05;;;18.20;99.90;;;;;;5072612;28;20877;-70
2022/07/31 02:23:30;;;;;;;6.75;5.10;;;18.10;99.90;;;;;;5072841;28;20036;-70
2022/07/31 02:25:56;;;;;;;8.10;5.40;;;18.20;99.90;;;;;;5070549;28;20043;-69
2022/07/31 02:28:24;;;;;;;6.50;4.70;;;18.20;99.90;;;;;;5069833;28;20393;-69
2022/07/31 02:30:51;;;;;;;7.68;4.88;;;18.20;99.90;;;;;;5070153;28;20052;-70
2022/07/31 02:33:20;;;;;;;7.43;4.93;;;18.20;99.90;;;;;;5052889;28;20035;-69
2022/07/31 02:35:48;;;;;;;7.22;5.20;;;18.20;99.90;;;;;;5068703;28;20086;-70
2022/07/31 02:38:17;;;;;;;8.73;4.82;;;18.20;99.90;;;;;;5068425;28;20098;-69
2022/07/31 02:40:43;;;;;;;7.85;5.35;;;18.10;99.90;;;;;;5068693;28;20454;-70
2022/07/31 02:43:10;;;;;;;7.57;5.07;;;18.20;99.90;;;;;;5068248;28;20037;-69
2022/07/31 02:45:37;;;;;;;8.07;4.85;;;18.10;99.90;;;;;;5068414;28;20040;-70
2022/07/31 02:48:03;;;;;;;10.35;5.80;;;18.10;99.90;;;;;;5068194;28;20147;-70
2022/07/31 02:50:30;;;;;;;7.43;5.00;;;18.20;99.90;;;;;;5071830;28;20252;-69
2022/07/31 02:52:56;;;;;;;6.13;4.88;;;18.10;99.90;;;;;;5072191;28;20089;-71
2022/07/31 02:55:21;;;;;;;7.20;4.93;;;18.10;99.90;;;;;;5072620;28;20123;-70
2022/07/31 02:57:47;;;;;;;5.65;5.05;;;18.10;99.90;;;;;;5073623;28;20145;-70
2022/07/31 03:00:21;;;;;;;7.72;5.07;;;18.10;99.90;;;;;;5073991;28;20109;-70
2022/07/31 03:02:50;;;;;;;8.45;5.05;;;18.10;99.90;;;;;;5073382;28;20049;-69
2022/07/31 03:05:16;;;;;;;9.52;5.22;;;18.10;99.90;;;;;;5072603;28;20463;-71
2022/07/31 03:07:42;;;;;;;10.32;5.47;;;18.00;99.90;;;;;;5073433;28;20048;-70
2022/07/31 03:10:09;;;;;;;8.30;4.85;;;18.00;99.90;;;;;;5055898;28;20479;-70
2022/07/31 03:12:39;;;;;;;7.45;4.80;;;18.00;99.90;;;;;;5073117;28;20499;-70
2022/07/31 03:15:09;;;;;;;6.82;5.10;;;18.00;99.90;;;;;;5073624;28;20132;-70
2022/07/31 03:17:37;;;;;;;9.20;5.40;;;18.00;99.90;;;;;;5071802;28;20060;-71
2022/07/31 03:20:04;;;;;;;6.55;5.80;;;18.00;99.90;;;;;;5071903;28;20040;-71
2022/07/31 03:22:30;;;;;;;7.15;5.40;;;17.90;99.90;;;;;;5071767;28;20079;-71
2022/07/31 03:24:56;;;;;;;8.98;5.18;;;17.90;99.90;;;;;;5071794;28;20075;-71
2022/07/31 03:27:22;;;;;;;9.07;5.30;;;17.90;99.90;;;;;;5072992;28;20401;-71
2022/07/31 03:29:48;;;;;;;11.43;5.18;;;17.90;99.90;;;;;;5071649;28;20032;-70
2022/07/31 03:32:13;;;;;;;7.78;5.68;;;17.80;99.90;;;;;;5072900;28;20044;-71
2022/07/31 03:34:39;;;;;;;6.90;4.88;;;17.90;99.90;;;;;;5055025;28;20082;-71
2022/07/31 03:37:05;;;;;;;6.90;5.30;;;17.80;99.90;;;;;;5072631;28;20117;-71
2022/07/31 03:39:30;;;;;;;8.68;5.05;;;17.80;99.90;;;;;;5073236;28;20120;-71
2022/07/31 03:41:57;;;;;;;9.60;5.68;;;17.90;99.90;;;;;;5073312;28;20066;-71
2022/07/31 03:44:24;;;;;;;8.10;5.50;;;17.80;99.90;;;;;;5074418;28;20049;-72
2022/07/31 03:46:51;;;;;;;5.75;4.70;;;17.90;99.90;;;;;;5073273;28;20118;-70
2022/07/31 03:49:16;;;;;;;9.48;5.75;;;17.90;99.90;;;;;;5071252;28;20127;-71
2022/07/31 03:51:42;;;;;;;8.50;5.40;;;17.90;99.90;;;;;;5068093;28;20536;-71
2022/07/31 03:54:08;;;;;;;7.70;5.43;;;17.80;99.90;;;;;;5068424;28;20048;-71
2022/07/31 03:56:35;;;;;;;10.70;6.15;;;17.80;99.90;;;;;;5070736;28;20519;-71
2022/07/31 03:59:02;;;;;;;10.95;6.20;;;17.80;99.90;;;;;;5072573;28;20044;-68
2022/07/31 04:01:28;;;;;;;6.05;5.35;;;17.80;99.90;;;;;;5069244;28;20055;-71
2022/07/31 04:03:57;;;;;;;13.13;5.65;;;17.70;99.90;;;;;;5071775;28;20048;-70
2022/07/31 04:06:23;;;;;;;8.85;5.75;;;17.70;99.90;;;;;;5070788;28;20573;-71
2022/07/31 04:08:49;;;;;;;6.82;5.15;;;17.70;99.90;;;;;;5054532;28;20036;-69
2022/07/31 04:11:15;;;;;;;7.15;5.60;;;17.70;99.90;;;;;;5070848;28;20036;-70
2022/07/31 04:13:41;;;;;;;7.82;5.40;;;17.70;99.90;;;;;;5072224;28;20059;-69
2022/07/31 04:16:06;;;;;;;7.97;5.28;;;17.70;99.90;;;;;;5072099;28;20048;-71
2022/07/31 04:18:33;;;;;;;7.43;5.95;;;17.70;99.90;;;;;;5070680;28;20040;-71
2022/07/31 04:20:58;;;;;;;7.05;5.32;;;17.70;99.90;;;;;;5053718;28;20044;-71
2022/07/31 04:23:24;;;;;;;9.10;5.82;;;17.80;99.90;;;;;;5071915;28;20094;-71
2022/07/31 04:25:50;;;;;;;12.38;5.70;;;17.80;99.90;;;;;;5071986;28;20127;-70
2022/07/31 04:28:16;;;;;;;7.07;5.45;;;17.80;99.90;;;;;;5071965;28;20120;-71
2022/07/31 04:30:41;;;;;;;7.07;5.63;;;17.80;99.90;;;;;;5070549;28;20086;-70
2022/07/31 04:33:08;;;;;;;7.78;5.03;;;17.80;99.90;;;;;;5071549;28;20040;-71
2022/07/31 04:35:34;;;;;;;7.55;5.38;;;17.90;99.90;;;;;;5071433;28;20037;-71
2022/07/31 04:37:59;;;;;;;10.05;5.65;;;17.90;99.90;;;;;;5070020;28;20045;-70
2022/07/31 04:40:26;;;;;;;7.50;5.18;;;17.90;99.90;;;;;;5071530;28;20048;-70
2022/07/31 04:42:52;;;;;;;6.38;4.85;;;17.90;99.90;;;;;;5070018;28;20123;-70
2022/07/31 04:45:18;;;;;;;6.00;4.93;;;18.00;99.90;;;;;;5070095;28;20048;-70
2022/07/31 04:47:43;;;;;;;7.85;4.95;;;17.90;99.90;;;;;;5070992;28;20071;-70
2022/07/31 04:50:09;;;;;;;11.52;5.05;;;18.00;99.90;;;;;;5072295;28;20067;-70
2022/07/31 04:52:35;;;;;;;9.43;5.05;;;18.00;99.90;;;;;;5069900;28;20358;-71
2022/07/31 04:55:00;;;;;;;8.48;4.90;;;18.00;99.90;;;;;;5069974;28;20048;-72
2022/07/31 04:57:26;;;;;;;8.40;5.20;;;18.00;99.90;;;;;;5071445;28;20059;-70
2022/07/31 04:59:51;;;;;;;8.20;5.35;;;18.00;99.90;;;;;;5073732;28;20040;-69
2022/07/31 05:02:17;;;;;;;10.02;5.43;;;18.00;99.90;;;;;;5072355;28;20143;-70
2022/07/31 05:04:42;;;;;;;8.50;5.53;;;18.00;99.90;;;;;;5071143;28;20051;-69
2022/07/31 05:07:08;;;;;;;11.27;5.63;;;18.00;99.90;;;;;;5070936;28;20051;-70
2022/07/31 05:09:34;;;;;;;6.55;5.00;;;18.00;99.90;;;;;;5069679;28;20036;-70
2022/07/31 05:12:00;;;;;;;12.93;5.78;;;18.00;99.90;;;;;;5070760;28;20068;-69
2022/07/31 05:14:26;;;;;;;6.05;5.00;;;18.00;99.90;;;;;;5068644;28;20033;-71
2022/07/31 05:16:52;;;;;;;6.82;5.30;;;18.00;99.90;;;;;;5069645;28;20049;-70
2022/07/31 05:19:18;;;;;;;6.72;5.20;;;18.10;99.90;;;;;;5069646;28;20050;-70
2022/07/31 05:21:44;;;;;;;17.65;5.38;;;18.10;99.90;;;;;;5069375;28;20041;-71
2022/07/31 05:24:10;;;;;;;9.77;5.22;;;18.20;99.90;;;;;;5070296;28;20090;-70
2022/07/31 05:26:37;;;;;;;5.15;4.65;;;18.20;99.90;;;;;;5070562;28;20459;-70
2022/07/31 05:29:04;;;;;;;10.68;5.10;;;18.20;99.90;;;;;;5069115;28;20086;-71
2022/07/31 05:31:29;;;;;;;6.47;4.75;;;18.20;99.90;;;;;;5069131;28;20105;-71
2022/07/31 05:33:57;;;;;;;6.70;4.55;;;18.30;99.90;;;;;;5068629;28;20044;-70
2022/07/31 05:36:24;;;;;;;10.27;4.85;;;18.30;99.90;;;;;;5068835;28;20054;-70
2022/07/31 05:38:49;;;;;;;8.60;5.97;;;18.30;99.90;;;;;;5070575;28;20090;-69
2022/07/31 05:41:15;;;;;;;9.38;5.45;;;18.30;99.90;;;;;;5069178;28;20052;-69
2022/07/31 05:43:41;;;;;;;12.75;5.43;;;18.30;99.90;;;;;;5052381;28;20071;-70
2022/07/31 05:46:07;;;;;;;5.60;5.00;;;18.30;99.90;;;;;;5070136;28;20052;-69
2022/07/31 05:48:32;;;;;;;7.15;5.00;;;18.30;99.90;;;;;;5070171;28;20047;-70
2022/07/31 05:50:58;;;;;;;8.38;5.35;;;18.30;99.90;;;;;;5070284;28;20037;-70
2022/07/31 05:53:24;;;;;;;9.65;5.57;;;18.30;99.90;;;;;;5070127;28;20059;-70
2022/07/31 05:55:50;;;;;;;12.32;5.75;;;18.30;99.90;;;;;;5071579;28;20119;-69
2022/07/31 05:58:18;;;;;;;7.00;4.85;;;18.30;99.90;;;;;;5069097;28;20044;-70
2022/07/31 06:00:46;;;;;;;6.32;5.07;;;18.40;99.90;;;;;;5068502;28;20041;-70
2022/07/31 06:03:12;;;;;;;6.45;4.75;;;18.40;99.90;;;;;;5051991;28;20040;-70
2022/07/31 06:05:39;;;;;;;7.50;5.07;;;18.50;99.90;;;;;;5070418;28;20665;-70
2022/07/31 06:08:05;;;;;;;8.55;4.95;;;18.50;99.90;;;;;;5068708;28;20037;-70
2022/07/31 06:10:31;;;;;;;5.55;4.95;;;18.50;99.90;;;;;;5068911;28;20559;-70
2022/07/31 06:12:56;;;;;;;8.70;4.68;;;18.60;99.90;;;;;;5070834;28;20032;-70
2022/07/31 06:15:22;;;;;;;8.18;4.72;;;18.60;99.90;;;;;;5072514;28;20447;-71
2022/07/31 06:17:47;;;;;;;7.15;4.93;;;18.60;99.90;;;;;;5071939;28;20132;-71
2022/07/31 06:20:13;;;;;;;10.10;4.72;;;18.60;99.90;;;;;;5069694;28;20093;-71
2022/07/31 06:22:42;;;;;;;7.50;5.03;;;18.60;99.90;;;;;;5069974;28;20040;-70
2022/07/31 06:25:09;;;;;;;7.60;4.63;;;18.70;99.90;;;;;;5068707;28;20488;-71
2022/07/31 06:27:35;;;;;;;10.40;5.15;;;18.70;99.90;;;;;;5069846;28;20041;-71
2022/07/31 06:30:02;;;;;;;8.35;4.85;;;18.80;99.90;;;;;;5068624;28;20044;-71
2022/07/31 06:32:28;;;;;;;8.55;4.55;;;18.80;99.90;;;;;;5068169;28;20626;-70
2022/07/31 06:34:54;;;;;;;8.43;4.68;;;18.90;99.90;;;;;;5068500;28;20036;-71
2022/07/31 06:37:19;;;;;;;8.35;4.80;;;18.90;99.90;;;;;;5068101;28;20089;-71
2022/07/31 06:39:45;;;;;;;7.50;4.40;;;19.00;99.90;;;;;;5070065;28;20115;-72
2022/07/31 06:42:16;;;;;;;6.60;4.88;;;19.00;99.90;;;;;;5068272;28;20489;-70
2022/07/31 06:44:42;;;;;;;8.57;5.07;;;19.00;99.90;;;;;;5069861;28;20036;-69
2022/07/31 06:47:08;;;;;;;5.47;4.97;;;19.10;99.90;;;;;;5068560;28;20387;-69
2022/07/31 06:49:33;;;;;;;5.63;5.07;;;19.10;99.90;;;;;;5068441;28;20036;-70
2022/07/31 06:51:59;;;;;;;11.70;4.70;;;19.10;99.90;;;;;;5059721;28;20036;-70
2022/07/31 06:54:24;;;;;;;8.25;4.80;;;19.20;99.90;;;;;;5057085;28;20467;-69
2022/07/31 06:56:50;;;;;;;10.40;5.22;;;19.20;99.90;;;;;;5059255;28;20444;-69
2022/07/31 06:59:16;;;;;;;7.50;5.50;;;19.20;99.90;;;;;;5057522;28;20504;-70
2022/07/31 07:01:41;;;;;;;11.63;6.07;;;19.30;99.90;;;;;;5059373;28;20119;-69
2022/07/31 07:04:08;;;;;;;6.65;5.63;;;19.30;99.90;;;;;;5068833;28;20124;-70
2022/07/31 07:06:33;;;;;;;8.88;5.30;;;19.30;99.90;;;;;;5070678;28;20048;-69
2022/07/31 07:08:59;;;;;;;7.95;5.10;;;19.30;99.90;;;;;;5069780;28;20032;-69
2022/07/31 07:11:24;;;;;;;7.50;5.95;;;19.30;99.90;;;;;;5069505;28;20089;-69
2022/07/31 07:13:50;;;;;;;11.18;5.80;;;19.40;99.90;;;;;;5067736;28;20056;-69
2022/07/31 07:16:16;;;;;;;10.50;6.03;;;19.40;99.90;;;;;;5069632;28;20043;-69
2022/07/31 07:18:42;;;;;;;7.97;5.57;;;19.40;99.90;;;;;;5069318;28;20059;-71
2022/07/31 07:21:07;;;;;;;7.00;5.75;;;19.50;99.90;;;;;;5059689;28;20052;-70
2022/07/31 07:23:33;;;;;;;9.52;6.03;;;19.50;99.90;;;;;;5056894;28;20036;-69
2022/07/31 07:25:59;;;;;;;6.35;5.75;;;19.60;99.90;;;;;;5059849;28;20132;-70
2022/07/31 07:28:24;;;;;;;8.18;5.75;;;19.60;99.90;;;;;;5055940;28;20479;-69
2022/07/31 07:30:50;;;;;;;10.35;6.25;;;19.70;99.90;;;;;;5059134;28;20396;-70
2022/07/31 07:33:15;;;;;;;7.93;6.50;;;19.70;99.90;;;;;;5058151;28;20045;-70
2022/07/31 07:35:41;;;;;;;9.18;6.70;;;19.70;99.90;;;;;;5059366;28;20413;-70
2022/07/31 07:38:07;;;;;;;9.02;6.72;;;19.70;99.90;;;;;;5058500;28;20048;-69
2022/07/31 07:40:32;;;;;;;7.88;6.45;;;19.70;99.90;;;;;;5053256;28;20048;-70
2022/07/31 07:42:58;;;;;;;8.80;6.80;;;19.70;99.90;;;;;;5052950;28;20040;-70
2022/07/31 07:45:24;;;;;;;10.23;7.45;;;19.70;99.90;;;;;;5053023;28;20115;-69
2022/07/31 07:47:49;;;;;;;8.10;6.88;;;19.80;99.90;;;;;;5052624;28;20439;-69
2022/07/31 07:50:15;;;;;;;8.27;7.07;;;19.80;99.90;;;;;;5052677;28;20044;-69
2022/07/31 07:52:42;;;;;;;10.15;7.60;;;19.90;99.90;;;;;;5052627;28;20491;-70
2022/07/31 07:55:08;;;;;;;12.18;7.90;;;19.90;99.90;;;;;;5051695;28;20099;-69
2022/07/31 07:57:35;;;;;;;11.02;8.02;;;19.90;99.90;;;;;;5052780;28;20076;-70
2022/07/31 08:00:11;;;;;;;12.48;8.00;;;20.00;99.90;;;;;;5052578;28;20471;-70
2022/07/31 08:02:37;;;;;;;12.93;8.75;;;20.00;99.90;;;;;;5050712;28;20536;-69
2022/07/31 08:05:03;;;;;;;12.77;8.38;;;20.00;99.90;;;;;;5052343;28;20123;-71
2022/07/31 08:07:30;;;;;;;12.25;7.78;;;20.10;99.90;;;;;;5051154;28;20401;-70
2022/07/31 08:09:56;;;;;;;11.07;7.95;;;20.10;99.90;;;;;;5052050;28;20120;-70
2022/07/31 08:12:22;;;;;;;13.43;7.78;;;20.10;99.90;;;;;;5054461;28;20052;-70
2022/07/31 08:14:48;;;;;;;12.98;8.25;;;20.10;99.90;;;;;;5055212;28;20127;-70
2022/07/31 08:17:14;;;;;;;13.63;8.13;;;20.20;99.90;;;;;;5052187;28;20045;-70
2022/07/31 08:19:40;;;;;;;13.48;8.50;;;20.20;99.90;;;;;;5051895;28;20390;-70
2022/07/31 08:22:06;;;;;;;12.60;8.20;;;20.20;99.90;;;;;;5050616;28;20045;-70
2022/07/31 08:24:32;;;;;;;8.77;7.60;;;20.10;99.90;;;;;;5051718;28;20064;-70
2022/07/31 08:29:41;;;;;;;11.90;8.82;;;20.20;99.90;;;;;;5052038;28;20041;-70
2022/07/31 08:32:07;;;;;;;12.55;8.13;;;20.20;99.90;;;;;;5051672;28;20044;-71
2022/07/31 08:34:33;;;;;;;10.65;9.15;;;20.20;99.90;;;;;;5051593;28;20458;-71
2022/07/31 08:36:58;;;;;;;10.90;8.25;;;20.30;99.90;;;;;;5050313;28;20048;-70
2022/07/31 08:39:24;;;;;;;12.52;8.02;;;20.30;99.90;;;;;;5051712;28;20463;-70
2022/07/31 08:41:50;;;;;;;12.68;8.35;;;20.30;99.90;;;;;;5050139;28;20041;-70
2022/07/31 08:44:15;;;;;;;12.82;8.65;;;20.40;99.90;;;;;;5055092;28;20059;-71
2022/07/31 08:46:41;;;;;;;11.50;8.95;;;20.50;99.90;;;;;;5059103;28;20072;-70
2022/07/31 08:49:08;;;;;;;12.82;8.10;;;20.50;99.90;;;;;;5061076;28;20048;-70
2022/07/31 08:51:36;;;;;;;13.52;7.82;;;20.50;99.90;;;;;;5060588;28;20400;-70
2022/07/31 08:54:06;;;;;;;10.73;8.57;;;20.60;99.90;;;;;;5059101;28;20505;-70
2022/07/31 08:56:36;;;;;;;11.95;7.18;;;20.60;99.90;;;;;;5061738;28;20515;-71
2022/07/31 08:59:05;;;;;;;13.80;7.70;;;20.70;99.90;;;;;;5060472;28;20049;-70
2022/07/31 09:01:35;;;;;;;13.23;7.32;;;20.70;99.90;;;;;;5059410;28;20051;-70
2022/07/31 09:04:01;;;;;;;17.85;7.00;;;20.70;99.90;;;;;;5059157;28;20115;-70
2022/07/31 09:06:27;;;;;;;10.18;7.03;;;20.80;99.90;;;;;;5061380;28;20497;-70
2022/07/31 09:08:55;;;;;;;12.77;7.95;;;20.80;99.90;;;;;;5058086;28;20118;-70
2022/07/31 09:11:21;;;;;;;10.13;6.45;;;20.70;99.90;;;;;;5058892;28;20124;-70
2022/07/31 09:13:58;;;;;;;10.98;7.38;;;20.70;99.90;;;;;;5061194;28;20033;-69
2022/07/31 09:16:24;;;;;;;8.32;6.00;;;20.70;99.90;;;;;;5043459;28;20135;-69
2022/07/31 09:18:56;;;;;;;8.68;7.20;;;20.70;99.90;;;;;;5055009;28;20163;-68
2022/07/31 09:21:22;;;;;;;9.95;7.53;;;20.70;99.90;;;;;;5059884;28;20042;-68
2022/07/31 09:23:48;;;;;;;11.70;7.70;;;20.70;99.90;;;;;;5062406;28;20123;-69
2022/07/31 09:26:14;;;;;;;11.20;8.48;;;20.70;99.90;;;;;;5060774;28;20036;-69
2022/07/31 09:28:45;;;;;;;9.93;8.10;;;20.70;99.90;;;;;;5059851;28;20044;-69
2022/07/31 09:31:12;;;;;;;13.60;9.07;;;20.70;99.90;;;;;;5058278;28;20032;-69
2022/07/31 09:33:41;;;;;;;12.38;7.90;;;20.70;99.90;;;;;;5058841;28;20040;-69
2022/07/31 09:36:06;;;;;;;10.95;7.70;;;20.70;99.90;;;;;;5059202;28;20060;-70
2022/07/31 09:38:35;;;;;;;11.90;8.65;;;20.60;99.90;;;;;;5066338;28;20041;-69
2022/07/31 09:41:17;;;;;;;12.80;8.10;;;20.60;99.90;;;;;;5068031;28;20044;-69
2022/07/31 09:43:53;;;;;;;13.65;8.98;;;20.50;99.90;;;;;;5068253;28;20048;-69
2022/07/31 09:46:19;;;;;;;10.30;9.00;;;20.50;99.90;;;;;;5069805;28;20041;-69
2022/07/31 09:48:52;;;;;;;12.88;8.75;;;20.50;99.90;;;;;;5069684;28;20112;-69
2022/07/31 09:51:18;;;;;;;17.00;9.20;;;20.50;99.90;;;;;;5069331;28;20028;-67
2022/07/31 09:53:55;;;;;;;10.15;9.07;;;20.40;99.90;;;;;;5068149;28;20036;-69
2022/07/31 09:56:34;;;;;;;12.82;9.48;;;20.40;99.90;;;;;;5068309;28;20062;-68
2022/07/31 09:59:00;;;;;;;13.25;9.27;;;20.40;99.90;;;;;;5067999;28;20032;-68
2022/07/31 10:01:26;;;;;;;11.93;9.38;;;20.30;99.90;;;;;;5069749;28;20067;-69
2022/07/31 10:03:54;;;;;;;12.52;9.38;;;20.40;99.90;;;;;;5069527;28;20032;-69
2022/07/31 10:06:23;;;;;;;13.27;10.20;;;20.40;99.90;;;;;;5069720;28;20033;-68
2022/07/31 10:08:49;;;;;;;17.15;10.18;;;20.40;99.90;;;;;;5072277;28;20488;-69
2022/07/31 10:11:18;;;;;;;12.00;9.88;;;20.40;99.90;;;;;;5075081;28;20439;-69
2022/07/31 10:13:48;;;;;;;15.02;10.70;;;20.40;99.90;;;;;;5071815;28;20040;-68
2022/07/31 10:16:14;;;;;;;15.23;10.50;;;20.40;99.90;;;;;;5072973;28;20036;-69
2022/07/31 10:18:44;;;;;;;14.85;11.43;;;20.40;99.90;;;;;;5069123;28;20432;-68
2022/07/31 10:21:10;;;;;;;17.88;10.32;;;20.50;99.90;;;;;;5067952;28;20396;-70
2022/07/31 10:23:39;;;;;;;13.38;9.85;;;20.50;99.90;;;;;;5069526;28;20036;-69
2022/07/31 10:26:06;;;;;;;12.13;9.70;;;20.50;99.90;;;;;;5069893;28;20041;-69
2022/07/31 10:28:36;;;;;;;14.82;10.40;;;20.60;99.90;;;;;;5070603;28;20042;-70
2022/07/31 10:31:02;;;;;;;16.08;11.35;;;20.60;99.90;;;;;;5070745;28;20119;-71
2022/07/31 10:33:28;;;;;;;13.18;11.52;;;20.60;99.90;;;;;;5069341;28;20037;-71
2022/07/31 10:36:07;;;;;;;14.75;10.68;;;20.60;99.90;;;;;;5069307;28;20036;-71
2022/07/31 10:39:00;;;;;;;14.50;11.20;;;20.70;99.90;;;;;;5062544;28;20048;-70
2022/07/31 10:41:31;;;;;;;13.57;11.35;;;20.80;99.90;;;;;;5057426;28;20037;-70
2022/07/31 10:44:02;;;;;;;16.08;11.45;;;20.80;99.90;;;;;;5054486;28;20068;-69
2022/07/31 10:46:32;;;;;;;18.50;11.85;;;20.80;99.90;;;;;;5049826;28;20112;-70
2022/07/31 10:48:59;;;;;;;17.50;11.43;;;20.80;99.90;;;;;;5049679;28;20037;-69
2022/07/31 10:51:25;;;;;;;16.85;11.25;;;20.80;99.90;;;;;;5049747;28;20037;-71
2022/07/31 10:54:04;;;;;;;14.00;10.77;;;20.70;99.90;;;;;;5047899;28;20124;-70
2022/07/31 10:56:41;;;;;;;14.63;11.65;;;20.80;99.90;;;;;;5049706;28;20055;-70
2022/07/31 10:59:06;;;;;;;13.40;10.60;;;20.70;99.90;;;;;;5047916;28;20041;-70
2022/07/31 11:01:32;;;;;;;14.50;10.80;;;20.70;99.90;;;;;;5048382;28;20045;-69
2022/07/31 11:04:03;;;;;;;16.05;11.55;;;20.70;99.90;;;;;;5052407;28;20041;-69
2022/07/31 11:06:43;;;;;;;18.17;12.00;;;20.80;99.90;;;;;;5069109;28;20127;-71
2022/07/31 11:09:20;;;;;;;13.98;11.38;;;20.80;99.90;;;;;;5072899;28;20037;-71
2022/07/31 11:11:45;;;;;;;15.70;11.18;;;20.70;99.90;;;;;;5073210;28;20116;-71
2022/07/31 11:14:11;;;;;;;13.82;11.45;;;20.80;99.90;;;;;;5057874;28;20170;-73
2022/07/31 11:16:48;;;;;;;16.70;12.23;;;20.70;99.90;;;;;;5075501;28;20441;-71
2022/07/31 11:19:14;;;;;;;18.08;12.25;;;20.80;99.90;;;;;;5076204;28;20368;-70
2022/07/31 11:21:41;;;;;;;16.95;12.07;;;20.70;99.90;;;;;;5077218;28;20041;-70
2022/07/31 11:24:15;;;;;;;16.50;12.40;;;20.70;99.90;;;;;;5075117;28;20751;-70
2022/07/31 11:26:58;;;;;;;16.55;12.15;;;20.80;99.90;;;;;;5076167;28;20070;-70
2022/07/31 11:29:35;;;;;;;15.73;11.75;;;20.80;99.90;;;;;;5077069;28;20037;-70
2022/07/31 11:32:04;;;;;;;16.73;11.90;;;20.70;99.90;;;;;;5075451;28;20124;-71
2022/07/31 11:34:31;;;;;;;16.85;11.98;;;20.70;99.90;;;;;;5075140;28;20113;-71
2022/07/31 11:36:57;;;;;;;20.75;13.35;;;20.70;99.90;;;;;;5076343;28;20522;-71
2022/07/31 11:39:26;;;;;;;19.25;12.93;;;20.70;99.90;;;;;;5079396;28;20090;-71
2022/07/31 11:41:52;;;;;;;22.50;13.85;;;20.60;99.90;;;;;;5077524;28;20036;-71
2022/07/31 11:44:20;;;;;;;20.27;14.20;;;20.50;99.90;;;;;;5073416;28;20095;-70
2022/07/31 11:46:49;;;;;;;20.30;15.27;;;20.40;99.90;;;;;;5071777;28;20124;-71
2022/07/31 11:49:20;;;;;;;18.90;15.27;;;20.40;99.90;;;;;;5071804;28;20032;-70
2022/07/31 11:51:46;;;;;;;23.33;15.35;;;20.30;99.90;;;;;;5071435;28;20044;-70
2022/07/31 11:54:22;;;;;;;22.20;15.70;;;20.20;99.90;;;;;;5072679;28;20036;-71
2022/07/31 11:56:51;;;;;;;26.75;16.13;;;20.20;99.90;;;;;;5072963;28;20040;-70
2022/07/31 11:59:17;;;;;;;25.67;17.23;;;20.10;99.90;;;;;;5073225;28;20041;-69
2022/07/31 12:01:43;;;;;;;23.15;17.45;;;20.00;99.90;;;;;;5073224;28;20051;-70
2022/07/31 12:04:09;;;;;;;22.20;16.95;;;19.90;99.90;;;;;;5071414;28;20040;-69
2022/07/31 12:06:34;;;;;;;24.05;17.90;;;19.90;99.90;;;;;;5071716;28;20037;-70
2022/07/31 12:09:00;;;;;;;24.20;18.20;;;19.80;99.90;;;;;;5072912;28;20051;-69
2022/07/31 12:11:26;;;;;;;25.73;18.48;;;19.80;99.90;;;;;;5071740;28;20404;-70
2022/07/31 12:13:51;;;;;;;26.38;19.20;;;19.80;99.90;;;;;;5071627;28;20041;-70
2022/07/31 12:16:20;;;;;;;29.15;19.95;;;19.70;99.90;;;;;;5073009;28;20115;-69
2022/07/31 12:18:50;;;;;;;24.77;19.48;;;19.70;99.90;;;;;;5054924;28;20040;-70
2022/07/31 12:21:17;;;;;;;23.42;18.52;;;19.70;99.90;;;;;;5054335;28;20036;-70
2022/07/31 12:23:49;;;;;;;28.00;19.33;;;19.70;99.90;;;;;;5054180;28;20043;-71
2022/07/31 12:26:23;;;;;;;26.63;19.98;;;19.70;99.90;;;;;;5071587;28;20051;-71
2022/07/31 12:29:03;;;;;;;26.25;19.98;;;19.70;99.90;;;;;;5072936;28;20107;-70
2022/07/31 12:31:41;;;;;;;27.00;21.17;;;19.70;99.90;;;;;;5054482;28;20107;-70
2022/07/31 12:34:07;;;;;;;27.73;20.27;;;19.80;99.90;;;;;;5054336;28;20052;-70
2022/07/31 12:36:32;;;;;;;32.25;23.05;;;19.80;99.90;;;;;;5071296;28;20500;-70
2022/07/31 12:39:00;;;;;;;28.90;21.63;;;19.80;99.90;;;;;;5071055;28;20051;-71
2022/07/31 12:41:27;;;;;;;30.77;21.63;;;19.80;99.90;;;;;;5071354;28;20051;-70
2022/07/31 12:43:53;;;;;;;28.38;21.27;;;19.90;99.90;;;;;;5065804;28;20070;-70
2022/07/31 12:46:35;;;;;;;27.25;21.33;;;20.00;99.90;;;;;;5064762;28;20471;-70